createdAt,value
2018-06-16T00:00:47.284Z,18.50
2018-06-16T00:03:15.395Z,18.60
2018-06-16T00:05:43.528Z,18.40
2018-06-16T00:08:11.631Z,18.40
2018-06-16T00:10:39.795Z,18.40
2018-06-16T00:13:07.932Z,18.50
2018-06-16T00:15:36.047Z,18.50
2018-06-16T00:18:04.347Z,18.50
2018-06-16T00:20:32.459Z,18.50
2018-06-16T00:23:00.583Z,18.60
2018-06-16T00:25:28.716Z,18.50
2018-06-16T00:27:56.830Z,18.40
2018-06-16T00:30:24.935Z,18.30
2018-06-16T00:32:53.047Z,18.30
2018-06-16T00:35:21.151Z,18.20
2018-06-16T00:37:49.355Z,18.20
2018-06-16T00:40:17.461Z,18.10
2018-06-16T00:42:45.617Z,18.20
2018-06-16T00:45:13.719Z,18.30
2018-06-16T00:47:41.837Z,18.20
2018-06-16T00:50:09.934Z,18.30
2018-06-16T00:52:38.064Z,18.30
2018-06-16T00:55:06.471Z,18.30
2018-06-16T00:57:41.463Z,18.20
2018-06-16T01:00:09.574Z,18.30
2018-06-16T01:02:37.655Z,18.20
2018-06-16T01:05:05.751Z,18.10
2018-06-16T01:07:33.850Z,18.20
2018-06-16T01:10:01.965Z,18.10
2018-06-16T01:12:30.058Z,18.10
2018-06-16T01:20:16.895Z,18.00
2018-06-16T01:22:45.019Z,18.00
2018-06-16T01:25:13.144Z,18.10
2018-06-16T01:27:41.260Z,18.00
2018-06-16T01:30:09.379Z,18.10
2018-06-16T01:32:37.489Z,18.10
2018-06-16T01:35:05.599Z,18.10
2018-06-16T01:37:33.693Z,18.10
2018-06-16T01:40:01.798Z,18.10
2018-06-16T01:42:30.006Z,18.20
2018-06-16T01:44:58.168Z,18.20
2018-06-16T01:47:26.334Z,18.20
2018-06-16T01:49:54.429Z,18.20
2018-06-16T01:52:22.543Z,18.20
2018-06-16T01:54:50.644Z,18.20
2018-06-16T01:57:18.752Z,18.20
2018-06-16T01:59:46.858Z,18.20
2018-06-16T02:02:14.955Z,18.20
2018-06-16T02:04:43.080Z,18.20
2018-06-16T02:07:11.179Z,18.20
2018-06-16T02:09:39.280Z,18.30
2018-06-16T02:12:07.383Z,18.20
2018-06-16T02:14:35.496Z,18.30
2018-06-16T02:17:03.615Z,18.20
2018-06-16T02:19:31.796Z,18.20
2018-06-16T02:21:59.903Z,18.20
2018-06-16T02:24:27.994Z,18.10
2018-06-16T02:26:56.095Z,18.20
2018-06-16T02:29:24.227Z,18.10
2018-06-16T02:31:52.332Z,18.10
2018-06-16T02:34:20.455Z,18.10
2018-06-16T02:36:48.567Z,18.10
2018-06-16T02:39:16.674Z,18.00
2018-06-16T02:41:44.864Z,18.00
2018-06-16T02:44:12.922Z,18.00
2018-06-16T02:46:41.032Z,17.90
2018-06-16T02:49:09.130Z,17.80
2018-06-16T02:51:37.293Z,17.80
2018-06-16T02:54:05.380Z,17.80
2018-06-16T02:56:33.485Z,17.90
2018-06-16T02:59:01.591Z,18.00
2018-06-16T03:01:29.731Z,17.80
2018-06-16T03:03:57.838Z,17.80
2018-06-16T03:06:25.958Z,17.70
2018-06-16T03:08:54.056Z,17.60
2018-06-16T03:11:22.204Z,17.70
2018-06-16T03:13:50.323Z,17.80
2018-06-16T03:16:18.432Z,17.90
2018-06-16T03:18:46.570Z,17.90
2018-06-16T03:21:14.674Z,17.90
2018-06-16T03:23:42.771Z,17.90
2018-06-16T03:26:10.900Z,17.90
2018-06-16T03:28:38.991Z,18.00
2018-06-16T03:31:07.074Z,17.80
2018-06-16T03:33:35.171Z,17.70
2018-06-16T03:36:03.271Z,17.80
2018-06-16T03:38:31.375Z,17.80
2018-06-16T03:40:59.469Z,17.80
2018-06-16T03:43:27.578Z,17.80
2018-06-16T03:45:55.659Z,17.70
2018-06-16T03:48:23.758Z,17.70
2018-06-16T03:50:51.854Z,17.80
2018-06-16T03:53:20.010Z,17.80
2018-06-16T03:55:48.099Z,17.80
2018-06-16T03:58:16.190Z,17.80
2018-06-16T04:00:44.278Z,17.80
2018-06-16T04:03:12.379Z,17.90
2018-06-16T04:05:40.499Z,17.90
2018-06-16T04:08:08.603Z,17.90
2018-06-16T04:10:36.687Z,17.90
2018-06-16T04:15:32.724Z,18.10
2018-06-16T04:18:00.822Z,18.10
2018-06-16T04:20:29.015Z,18.10
2018-06-16T04:22:57.189Z,18.20
2018-06-16T04:25:25.304Z,18.20
2018-06-16T04:27:53.419Z,18.30
2018-06-16T04:30:21.515Z,18.30
2018-06-16T04:32:49.618Z,18.30
2018-06-16T04:35:17.732Z,18.30
2018-06-16T04:40:13.710Z,18.40
2018-06-16T04:42:41.811Z,18.40
2018-06-16T04:45:09.935Z,18.40
2018-06-16T04:47:38.082Z,18.50
2018-06-16T04:50:06.338Z,18.50
2018-06-16T04:52:34.443Z,18.40
2018-06-16T04:55:02.549Z,18.40
2018-06-16T04:57:30.669Z,18.50
2018-06-16T04:59:58.774Z,18.40
2018-06-16T05:04:54.766Z,18.40
2018-06-16T05:07:22.865Z,18.50
2018-06-16T05:09:50.990Z,18.70
2018-06-16T05:12:19.110Z,18.80
2018-06-16T05:14:47.205Z,18.80
2018-06-16T05:17:15.304Z,18.90
2018-06-16T05:19:43.501Z,19.00
2018-06-16T05:22:11.593Z,19.10
2018-06-16T05:24:39.710Z,19.20
2018-06-16T05:27:07.842Z,19.30
2018-06-16T05:29:35.950Z,19.50
2018-06-16T05:32:04.057Z,19.60
2018-06-16T05:34:32.187Z,19.70
2018-06-16T05:37:00.287Z,19.80
2018-06-16T05:39:28.414Z,19.80
2018-06-16T05:41:56.510Z,19.90
2018-06-16T05:44:24.628Z,20.00
2018-06-16T05:46:52.724Z,20.00
2018-06-16T05:49:20.838Z,20.00
2018-06-16T05:51:48.946Z,20.10
2018-06-16T05:54:17.053Z,20.30
2018-06-16T05:56:45.160Z,20.40
2018-06-16T05:59:13.264Z,20.50
2018-06-16T06:01:41.382Z,20.50
2018-06-16T06:04:09.486Z,20.50
2018-06-16T06:09:07.235Z,20.60
2018-06-16T06:11:35.359Z,20.70
2018-06-16T06:14:03.480Z,20.80
2018-06-16T06:16:32.123Z,20.90
2018-06-16T06:19:00.243Z,21.00
2018-06-16T06:21:28.366Z,21.10
2018-06-16T06:23:56.490Z,21.10
2018-06-16T06:26:24.608Z,21.20
2018-06-16T06:28:52.720Z,21.30
2018-06-16T06:31:20.821Z,21.40
2018-06-16T06:33:48.954Z,21.50
2018-06-16T06:36:17.047Z,21.60
2018-06-16T06:38:45.160Z,21.70
2018-06-16T06:41:13.276Z,21.80
2018-06-16T06:43:41.413Z,21.80
2018-06-16T06:46:09.527Z,21.80
2018-06-16T06:48:37.631Z,21.90
2018-06-16T06:51:05.924Z,22.10
2018-06-16T06:53:34.070Z,22.20
2018-06-16T06:56:02.242Z,22.20
2018-06-16T06:58:30.335Z,22.40
2018-06-16T07:00:58.452Z,22.40
2018-06-16T07:03:26.571Z,22.50
2018-06-16T07:05:54.687Z,22.60
2018-06-16T07:08:23.231Z,22.50
2018-06-16T07:10:51.377Z,22.60
2018-06-16T07:13:19.539Z,22.80
2018-06-16T07:15:47.684Z,22.90
2018-06-16T07:18:15.787Z,23.00
2018-06-16T07:20:44.088Z,23.00
2018-06-16T07:23:12.268Z,23.20
2018-06-16T07:25:40.372Z,23.30
2018-06-16T07:28:08.466Z,23.40
2018-06-16T07:30:36.567Z,23.50
2018-06-16T07:33:04.831Z,23.60
2018-06-16T07:35:32.939Z,23.60
2018-06-16T07:38:01.059Z,23.60
2018-06-16T07:40:29.165Z,23.70
2018-06-16T07:42:57.361Z,23.80
2018-06-16T07:45:25.487Z,23.90
2018-06-16T07:47:53.586Z,24.00
2018-06-16T07:50:21.731Z,24.00
2018-06-16T07:52:49.853Z,24.00
2018-06-16T07:55:17.951Z,24.10
2018-06-16T07:57:46.051Z,24.20
2018-06-16T08:00:14.172Z,24.40
2018-06-16T08:02:42.319Z,24.50
2018-06-16T08:05:10.416Z,24.60
2018-06-16T08:07:38.526Z,24.70
2018-06-16T08:10:06.658Z,24.80
2018-06-16T08:12:34.744Z,25.00
2018-06-16T08:15:02.856Z,25.20
2018-06-16T08:17:30.974Z,25.30
2018-06-16T08:19:59.099Z,25.40
2018-06-16T08:22:27.182Z,25.40
2018-06-16T08:24:55.292Z,25.50
2018-06-16T08:27:23.415Z,25.70
2018-06-16T08:29:51.550Z,25.80
2018-06-16T08:32:19.753Z,26.00
2018-06-16T08:34:48.083Z,26.10
2018-06-16T08:37:16.153Z,26.10
2018-06-16T08:39:44.299Z,26.10
2018-06-16T08:42:12.381Z,26.10
2018-06-16T08:44:40.468Z,26.10
2018-06-16T08:47:08.575Z,25.90
2018-06-16T08:49:36.650Z,26.00
2018-06-16T08:52:04.751Z,26.00
2018-06-16T08:54:39.542Z,26.10
2018-06-16T08:57:07.661Z,26.20
2018-06-16T08:59:35.739Z,26.20
2018-06-16T09:02:03.829Z,26.20
2018-06-16T09:04:31.910Z,26.20
2018-06-16T09:07:00.012Z,26.10
2018-06-16T09:09:28.129Z,25.90
2018-06-16T09:11:56.224Z,25.80
2018-06-16T09:14:24.327Z,25.90
2018-06-16T09:16:52.444Z,25.90
2018-06-16T09:19:20.533Z,25.90
2018-06-16T09:21:48.635Z,25.90
2018-06-16T09:24:16.737Z,25.80
2018-06-16T09:26:44.819Z,25.80
2018-06-16T09:29:12.998Z,25.60
2018-06-16T09:31:41.128Z,25.80
2018-06-16T09:34:09.218Z,25.90
2018-06-16T09:36:37.311Z,26.00
2018-06-16T09:39:07.634Z,26.10
2018-06-16T09:41:35.798Z,26.00
2018-06-16T09:44:03.896Z,25.90
2018-06-16T09:46:32.070Z,26.00
2018-06-16T09:49:00.184Z,26.10
2018-06-16T09:51:28.292Z,26.00
2018-06-16T09:53:56.373Z,26.10
2018-06-16T09:56:24.464Z,26.20
2018-06-16T09:58:52.633Z,26.40
2018-06-16T10:01:20.750Z,26.50
2018-06-16T10:03:48.831Z,26.60
2018-06-16T10:06:17.038Z,26.70
2018-06-16T10:08:45.115Z,26.80
2018-06-16T10:11:13.215Z,26.70
2018-06-16T10:13:41.317Z,26.60
2018-06-16T10:16:09.407Z,26.70
2018-06-16T10:18:37.491Z,26.90
2018-06-16T10:21:05.579Z,26.90
2018-06-16T10:23:33.759Z,27.00
2018-06-16T10:26:01.876Z,26.90
2018-06-16T10:28:29.953Z,26.90
2018-06-16T10:30:58.060Z,27.10
2018-06-16T10:33:26.143Z,27.30
2018-06-16T10:35:54.249Z,27.40
2018-06-16T10:38:22.344Z,27.40
2018-06-16T10:40:50.471Z,27.30
2018-06-16T10:43:18.628Z,27.40
2018-06-16T10:45:46.720Z,27.10
2018-06-16T10:48:14.835Z,27.10
2018-06-16T10:50:42.914Z,27.30
2018-06-16T10:53:11.024Z,27.50
2018-06-16T10:55:39.207Z,27.70
2018-06-16T10:58:07.295Z,27.80
2018-06-16T11:00:35.387Z,27.80
2018-06-16T11:03:03.481Z,27.70
2018-06-16T11:05:31.556Z,27.40
2018-06-16T11:07:59.646Z,27.50
2018-06-16T11:10:27.730Z,27.50
2018-06-16T11:12:55.830Z,27.60
2018-06-16T11:15:23.920Z,27.80
2018-06-16T11:17:52.218Z,27.90
2018-06-16T11:20:20.304Z,28.10
2018-06-16T11:22:48.450Z,28.30
2018-06-16T11:25:16.575Z,28.30
2018-06-16T11:27:44.735Z,28.30
2018-06-16T11:30:12.866Z,28.50
2018-06-16T11:32:40.977Z,28.80
2018-06-16T11:35:09.103Z,28.80
2018-06-16T11:37:37.307Z,28.70
2018-06-16T11:40:05.495Z,28.80
2018-06-16T11:42:33.614Z,28.80
2018-06-16T11:45:01.696Z,28.90
2018-06-16T11:47:29.793Z,28.90
2018-06-16T11:49:57.885Z,28.70
2018-06-16T11:52:25.990Z,28.90
2018-06-16T11:54:54.106Z,28.90
2018-06-16T11:57:22.267Z,28.90
2018-06-16T11:59:50.375Z,28.90
2018-06-16T12:02:18.510Z,28.70
2018-06-16T12:04:46.602Z,28.70
2018-06-16T12:07:14.706Z,28.90
2018-06-16T12:09:42.792Z,28.90
2018-06-16T12:12:10.879Z,28.80
2018-06-16T12:14:38.995Z,28.60
2018-06-16T12:17:07.098Z,28.40
2018-06-16T12:19:35.167Z,28.50
2018-06-16T12:22:03.267Z,28.50
2018-06-16T12:26:59.422Z,28.40
2018-06-16T12:29:27.531Z,28.30
2018-06-16T12:31:55.731Z,28.20
2018-06-16T12:34:23.831Z,28.20
2018-06-16T12:36:51.938Z,28.10
2018-06-16T12:39:20.048Z,28.10
2018-06-16T12:41:48.130Z,28.10
2018-06-16T12:44:16.233Z,28.00
2018-06-16T12:46:44.329Z,27.80
2018-06-16T12:49:12.448Z,27.80
2018-06-16T12:51:40.661Z,27.70
2018-06-16T12:54:08.755Z,27.70
2018-06-16T12:56:36.864Z,27.80
2018-06-16T12:59:04.943Z,27.80
2018-06-16T13:01:33.040Z,27.90
2018-06-16T13:04:01.152Z,28.10
2018-06-16T13:06:29.232Z,28.10
2018-06-16T13:08:57.315Z,28.00
2018-06-16T13:11:25.423Z,28.10
2018-06-16T13:13:53.538Z,28.10
2018-06-16T13:16:21.619Z,28.00
2018-06-16T13:18:49.722Z,28.10
2018-06-16T13:21:17.803Z,28.20
2018-06-16T13:23:45.991Z,28.20
2018-06-16T13:26:14.107Z,28.40
2018-06-16T13:28:42.214Z,28.30
2018-06-16T13:31:10.330Z,28.30
2018-06-16T13:33:38.534Z,28.40
2018-06-16T13:36:06.610Z,28.60
2018-06-16T13:38:34.722Z,28.70
2018-06-16T13:41:02.814Z,28.30
2018-06-16T13:43:30.926Z,28.00
2018-06-16T13:45:59.039Z,27.90
2018-06-16T13:48:28.467Z,27.70
2018-06-16T13:50:57.210Z,27.70
2018-06-16T13:53:25.310Z,27.70
2018-06-16T13:55:53.415Z,27.80
2018-06-16T13:58:21.522Z,28.10
2018-06-16T14:00:49.627Z,28.30
2018-06-16T14:03:17.744Z,28.30
2018-06-16T14:05:46.048Z,28.40
2018-06-16T14:08:14.149Z,28.30
2018-06-16T14:10:42.271Z,28.50
2018-06-16T14:13:10.376Z,28.50
2018-06-16T14:15:38.478Z,28.20
2018-06-16T14:18:06.579Z,28.30
2018-06-16T14:20:34.727Z,28.30
2018-06-16T14:23:02.874Z,28.30
2018-06-16T14:25:31.011Z,28.00
2018-06-16T14:27:59.108Z,28.10
2018-06-16T14:30:27.282Z,28.20
2018-06-16T14:32:55.428Z,28.10
2018-06-16T14:35:23.531Z,27.90
2018-06-16T14:37:51.615Z,27.70
2018-06-16T14:40:19.712Z,27.90
2018-06-16T14:42:47.804Z,28.00
2018-06-16T14:45:15.970Z,28.10
2018-06-16T14:47:44.118Z,28.30
2018-06-16T14:50:12.247Z,28.30
2018-06-16T14:52:40.334Z,28.30
2018-06-16T14:55:08.472Z,28.20
2018-06-16T14:57:36.566Z,28.00
2018-06-16T15:00:04.667Z,28.00
2018-06-16T15:02:32.772Z,27.70
2018-06-16T15:05:01.006Z,27.60
2018-06-16T15:07:28.954Z,27.50
2018-06-16T15:09:57.048Z,27.50
2018-06-16T15:12:25.138Z,27.40
2018-06-16T15:14:53.226Z,27.40
2018-06-16T15:17:21.310Z,27.50
2018-06-16T15:19:49.481Z,27.50
2018-06-16T15:22:17.559Z,27.40
2018-06-16T15:24:45.709Z,27.40
2018-06-16T15:27:13.804Z,27.50
2018-06-16T15:29:41.927Z,27.60
2018-06-16T15:32:10.047Z,27.50
2018-06-16T15:34:38.151Z,27.50
2018-06-16T15:37:06.264Z,27.50
2018-06-16T15:39:34.386Z,27.70
2018-06-16T15:42:02.480Z,27.40
2018-06-16T15:44:30.591Z,27.30
2018-06-16T15:46:58.699Z,27.30
2018-06-16T15:49:26.823Z,27.40
2018-06-16T15:51:54.964Z,27.30
2018-06-16T15:54:23.058Z,27.30
2018-06-16T15:56:51.213Z,27.40
2018-06-16T15:59:19.317Z,27.40
2018-06-16T16:01:47.484Z,27.50
2018-06-16T16:04:15.628Z,27.70
2018-06-16T16:06:43.731Z,27.90
2018-06-16T16:09:11.834Z,27.90
2018-06-16T16:11:39.970Z,27.80
2018-06-16T16:14:08.070Z,27.80
2018-06-16T16:16:36.527Z,27.70
2018-06-16T16:19:04.665Z,27.50
2018-06-16T16:21:32.778Z,27.40
2018-06-16T16:24:00.864Z,27.30
2018-06-16T16:26:28.987Z,27.20
2018-06-16T16:28:57.109Z,27.20
2018-06-16T16:31:25.227Z,27.20
2018-06-16T16:33:54.140Z,27.30
2018-06-16T16:36:22.276Z,27.30
2018-06-16T16:38:50.446Z,27.20
2018-06-16T16:41:18.561Z,27.20
2018-06-16T16:43:46.673Z,27.20
2018-06-16T16:46:14.836Z,27.30
2018-06-16T16:48:42.932Z,27.30
2018-06-16T16:51:11.050Z,27.00
2018-06-16T16:53:39.163Z,27.00
2018-06-16T16:56:07.263Z,27.10
2018-06-16T16:58:35.435Z,27.20
2018-06-16T17:01:03.562Z,26.80
2018-06-16T17:03:31.664Z,26.70
2018-06-16T17:05:59.779Z,26.60
2018-06-16T17:08:27.874Z,26.50
2018-06-16T17:10:55.991Z,26.50
2018-06-16T17:13:24.122Z,26.70
2018-06-16T17:15:52.264Z,26.80
2018-06-16T17:18:20.367Z,26.90
2018-06-16T17:20:48.472Z,26.90
2018-06-16T17:23:16.681Z,26.80
2018-06-16T17:25:44.787Z,26.70
2018-06-16T17:28:13.044Z,26.60
2018-06-16T17:30:41.160Z,26.60
2018-06-16T17:33:09.330Z,26.50
2018-06-16T17:35:37.431Z,26.70
2018-06-16T17:38:05.545Z,26.50
2018-06-16T17:40:33.642Z,26.50
2018-06-16T17:43:01.758Z,26.50
2018-06-16T17:45:29.869Z,26.40
2018-06-16T17:47:57.989Z,26.40
2018-06-16T17:50:26.091Z,26.50
2018-06-16T17:52:54.211Z,26.40
2018-06-16T17:55:22.310Z,26.60
2018-06-16T17:57:50.431Z,26.60
2018-06-16T18:00:18.553Z,26.50
2018-06-16T18:02:46.766Z,26.60
2018-06-16T18:05:14.864Z,26.60
2018-06-16T18:07:42.962Z,26.70
2018-06-16T18:10:11.069Z,26.70
2018-06-16T18:12:39.180Z,26.70
2018-06-16T18:15:07.275Z,26.80
2018-06-16T18:17:35.394Z,26.80
2018-06-16T18:20:03.503Z,26.80
2018-06-16T18:22:31.607Z,26.70
2018-06-16T18:24:59.706Z,26.60
2018-06-16T18:27:27.828Z,26.50
2018-06-16T18:29:55.934Z,26.50
2018-06-16T18:32:24.036Z,26.40
2018-06-16T18:34:52.143Z,26.30
2018-06-16T18:37:20.383Z,26.10
2018-06-16T18:39:48.486Z,26.00
2018-06-16T18:42:16.642Z,26.00
2018-06-16T18:44:44.730Z,25.90
2018-06-16T18:47:12.850Z,25.80
2018-06-16T18:49:41.008Z,25.70
2018-06-16T18:52:09.059Z,25.60
2018-06-16T18:54:37.170Z,25.60
2018-06-16T18:57:05.290Z,25.60
2018-06-16T18:59:33.486Z,25.40
2018-06-16T19:02:01.591Z,25.40
2018-06-16T19:04:29.709Z,25.30
2018-06-16T19:06:57.805Z,25.20
2018-06-16T19:09:25.897Z,25.10
2018-06-16T19:11:54.030Z,24.90
2018-06-16T19:14:22.119Z,24.70
2018-06-16T19:16:50.220Z,24.60
2018-06-16T19:19:18.330Z,24.50
2018-06-16T19:21:46.553Z,24.50
2018-06-16T19:24:14.709Z,24.40
2018-06-16T19:26:43.592Z,24.30
2018-06-16T19:29:11.684Z,24.20
2018-06-16T19:31:39.785Z,23.90
2018-06-16T19:34:07.886Z,23.70
2018-06-16T19:36:35.984Z,23.30
2018-06-16T19:39:06.250Z,23.20
2018-06-16T19:41:34.351Z,23.10
2018-06-16T19:44:09.992Z,22.90
2018-06-16T19:46:38.358Z,22.60
2018-06-16T19:49:06.947Z,22.50
2018-06-16T19:51:35.039Z,22.40
2018-06-16T19:54:03.146Z,22.20
2018-06-16T19:56:31.246Z,22.20
2018-06-16T19:58:59.367Z,22.20
2018-06-16T20:01:28.023Z,22.20
2018-06-16T20:03:56.410Z,22.20
2018-06-16T20:06:24.536Z,22.20
2018-06-16T20:08:52.630Z,22.20
2018-06-16T20:11:21.126Z,22.20
2018-06-16T20:13:49.414Z,22.20
2018-06-16T20:16:17.536Z,22.10
2018-06-16T20:18:46.263Z,22.10
2018-06-16T20:21:14.353Z,21.90
2018-06-16T20:23:42.472Z,21.80
2018-06-16T20:26:10.654Z,21.80
2018-06-16T20:28:38.749Z,21.70
2018-06-16T20:31:06.829Z,21.70
2018-06-16T20:33:34.997Z,21.70
2018-06-16T20:36:03.091Z,21.60
2018-06-16T20:38:31.185Z,21.40
2018-06-16T20:40:59.279Z,21.40
2018-06-16T20:43:27.473Z,21.30
2018-06-16T20:45:55.567Z,21.10
2018-06-16T20:48:23.986Z,21.10
2018-06-16T20:50:52.075Z,21.10
2018-06-16T20:53:20.171Z,21.10
2018-06-16T20:55:48.276Z,21.20
2018-06-16T20:58:16.379Z,21.10
2018-06-16T21:00:44.484Z,21.10
2018-06-16T21:03:12.611Z,21.20
2018-06-16T21:05:40.701Z,21.10
2018-06-16T21:08:08.787Z,21.20
2018-06-16T21:10:36.878Z,21.20
2018-06-16T21:13:05.068Z,21.20
2018-06-16T21:15:33.239Z,21.20
2018-06-16T21:18:01.339Z,21.10
2018-06-16T21:20:29.434Z,21.10
2018-06-16T21:22:57.521Z,21.10
2018-06-16T21:25:25.639Z,20.90
2018-06-16T21:27:53.736Z,21.00
2018-06-16T21:30:21.866Z,20.80
2018-06-16T21:32:49.959Z,20.80
2018-06-16T21:35:18.054Z,20.60
2018-06-16T21:37:46.156Z,20.60
2018-06-16T21:40:14.274Z,20.60
2018-06-16T21:42:42.371Z,20.60
2018-06-16T21:45:10.489Z,20.70
2018-06-16T21:47:38.603Z,20.60
2018-06-16T21:50:06.718Z,20.60
2018-06-16T21:52:35.195Z,20.50
2018-06-16T21:55:03.379Z,20.50
2018-06-16T21:57:31.474Z,20.50
2018-06-16T21:59:59.574Z,20.40
2018-06-16T22:02:27.676Z,20.50
2018-06-16T22:04:55.795Z,20.40
2018-06-16T22:07:23.891Z,20.40
2018-06-16T22:09:52.016Z,20.10
2018-06-16T22:12:20.113Z,20.10
2018-06-16T22:14:48.219Z,20.00
2018-06-16T22:17:16.350Z,19.90
2018-06-16T22:19:44.463Z,19.90
2018-06-16T22:22:12.567Z,19.90
2018-06-16T22:24:40.675Z,20.00
2018-06-16T22:29:36.650Z,19.90
2018-06-16T22:32:04.725Z,20.00
2018-06-16T22:34:32.819Z,20.10
2018-06-16T22:37:01.014Z,20.10
2018-06-16T22:39:29.096Z,20.10
2018-06-16T22:41:57.225Z,20.10
2018-06-16T22:44:25.320Z,20.10
2018-06-16T22:46:53.914Z,20.00
2018-06-16T22:49:21.999Z,20.00
2018-06-16T22:51:50.115Z,20.00
2018-06-16T22:54:18.214Z,20.00
2018-06-16T22:56:46.293Z,20.00
2018-06-16T22:59:14.430Z,20.00
2018-06-16T23:01:42.518Z,20.00
2018-06-16T23:04:12.803Z,20.00
2018-06-16T23:06:40.879Z,20.00
2018-06-16T23:09:10.600Z,20.00
2018-06-16T23:11:38.684Z,20.10
2018-06-16T23:14:07.019Z,20.10
2018-06-16T23:16:35.132Z,20.10
2018-06-16T23:19:03.223Z,20.00
2018-06-16T23:21:31.322Z,19.90
2018-06-16T23:23:59.520Z,19.80
2018-06-16T23:26:27.626Z,19.70
2018-06-16T23:28:55.728Z,19.80
2018-06-16T23:31:23.831Z,19.80
2018-06-16T23:33:51.935Z,19.60
2018-06-16T23:36:20.039Z,19.60
2018-06-16T23:38:48.151Z,19.50
2018-06-16T23:41:16.278Z,19.50
2018-06-16T23:43:44.385Z,19.40
2018-06-16T23:46:12.497Z,19.30
2018-06-16T23:48:40.684Z,19.20
2018-06-16T23:51:08.808Z,19.20
2018-06-16T23:53:36.908Z,19.30
2018-06-16T23:56:05.048Z,19.30
2018-06-16T23:58:33.179Z,19.30
